Vliegveldwaarnemingen Nederland - (AUTO) METAR

Luchtvaartmeteorologische informatie voor operationeel gebruik en vluchtvoorbereiding is beschikbaar op www.luchtvaartmeteo.nl.

ZCZC
SA061055 EHFS     VLISSINGEN AWS   NLD   8 m.
METAR EHFS 061055Z AUTO 06009KT 030V090 9999 NCD 05/M02 Q1034=

ZCZC
SA061055 EHSG     BSA   NLD   43 m.
METAR EHSG 061055Z AUTO 07008KT 040V100 //// // NCD 05/M01 Q1034
RE//=

ZCZC
SA061125 EHKD     DE KOOY/DE KOOY   NLD   1 m.
METAR EHKD 061125Z AUTO 30006KT 9999 BKN039 OVC043 06/M00 Q1034 BLU=

ZCZC
SA061125 EHFD     F3-FB-1   NLD   50 m.
METAR EHFD 061125Z AUTO /////KT 9999 FEW020/// BKN030/// OVC035///
04/M01 Q1033=

ZCZC
SA061125 EHAM     AMSTERDAM/SCHIPHOL   NLD   -3 m.
METAR EHAM 061125Z 07007KT 360V120 9999 FEW025 BKN038 05/M03 Q1035
NOSIG=

ZCZC
SA061125 EHVL     VLIELAND   NLD   10 m.
METAR EHVL 061125Z AUTO 32008KT 9999 SCT014 BKN016 OVC041 06/02 Q1035
 GRN=

ZCZC
SA061125 EHJR     K13-A   NLD   37 m.
METAR EHJR 061125Z AUTO 05008KT 010V080 //// // ///////// 04/M01
Q1035 RE// W06/H10=

ZCZC
SA061125 EHLE     LELYSTAD/LELYSTAD   NLD   -3 m.
METAR EHLE 061125Z AUTO VRB01KT 9999 OVC043 06/M02 Q1035 NOSIG=

ZCZC
SA061125 EHLW     LEEUWARDEN/LEEUWARDEN   NLD   1 m.
METAR EHLW 061125Z AUTO 33008KT 280V010 9999 BKN016 OVC019 05/02
Q1034 WHT=

ZCZC
SA061125 EHDL     ARNHEM/DEELEN   NLD   48 m.
METAR EHDL 061125Z AUTO VRB06KT 9999 BKN037 OVC270 06/M04 Q1034 BLU=

ZCZC
SA061125 EHGG     GRONINGEN/EELDE   NLD   5 m.
METAR EHGG 061125Z AUTO 31005KT 230V330 9999 FEW014 SCT030 BKN037
05/02 Q1034 NOSIG=

ZCZC
SA061125 EHSC     LICHTEILAND GOEREE   NLD   22 m.
METAR EHSC 061125Z AUTO 06005KT 030V090 9999 ///////// 04/M00 Q1035
W05/H7=

ZCZC
SA061125 EHSA     EURO PLATFORM   NLD   19 m.
METAR EHSA 061125Z AUTO 08007KT 9999 ///////// 04/M00 Q1035 W07/H8=

ZCZC
SA061125 EHWO     WOENSDRECHT/WOENSDRECHT   NLD   19 m.
METAR EHWO 061125Z AUTO 09008KT 050V120 9999 BKN032 06/M03 Q1034 BLU=

ZCZC
SA061125 EHRD     ROTTERDAM/THE HAGUE AIRPORT   NLD   -5 m.
METAR EHRD 061125Z AUTO 06008KT 9999 OVC035 05/M00 Q1035 NOSIG=

ZCZC
SA061125 EHGR     GILZE-RIJEN/GILZE-RIJEN   NLD   14 m.
METAR EHGR 061125Z AUTO 04007KT 350V090 9999 FEW037 SCT300 05/M03
Q1034 BLU=

ZCZC
SA061125 EHEH     EINDHOVEN/EINDHOVEN   NLD   22 m.
METAR EHEH 061125Z AUTO 04007KT 040V120 9999 BKN032 05/M03 Q1034
BLU NOSIG=

ZCZC
SA061125 EHVK     VOLKEL/VOLKEL   NLD   21 m.
METAR EHVK 061125Z AUTO 06007KT 360V090 9999 FEW034 BKN300 05/M03
Q1034 BLU=

ZCZC
SA061125 EHBK     MAASTRICHT/MAASTRICHT-AACHEN   NLD   114 m.
METAR EHBK 061125Z AUTO 07009KT 040V100 9999 NCD 05/M04 Q1033 NOSIG=

ZCZC
SA061125 EHFZ     F16-A   NLD   43 m.
METAR EHFZ 061125Z NIL=

ZCZC
SA061125 EHKV     K14-FA-1C   NLD   41 m.
METAR EHKV 061125Z AUTO 36005KT 9999 BKN041 05/00 Q1035=

ZCZC
SA061125 EHMG     L9-FF-1   NLD   44 m.
METAR EHMG 061125Z AUTO 30009KT 260V340 9999 BKN036 OVC040 05/01
Q1035=

ZCZC
SA061125 EHMA     AWG-1   NLD   40 m.
METAR EHMA 061125Z AUTO 32007KT 9999 FEW009 BKN026 BKN031 04/02
Q1034=

ZCZC
SA061125 EHDV     D15-FA-1   NLD   42 m.
METAR EHDV 061125Z AUTO 32008KT 9999 OVC037/// 05/M00 Q1034=

ZCZC
SA061125 EHAK     A12-CPP   NLD   48 m.
METAR EHAK 061125Z AUTO 29016KT 9999 OVC029/// 04/M01 Q1033=

ZCZC
SA061125 EHQE     HOORN-A   NLD   50 m.
METAR EHQE 061125Z AUTO 24003KT 220V280 9999 FEW015 SCT020 OVC038
04/01 Q1035=

ZCZC
SA061125 EHJA     J6-A   NLD   45 m.
METAR EHJA 061125Z AUTO 26004KT 9999 NSC 05/00 Q1035=

ZCZC
SA061125 EHPG     P11-B   NLD   41 m.
METAR EHPG 061125Z AUTO 09009KT 9999 FEW023 SCT035 OVC040 04/M00
Q1035=

ZCZC
SA061125 EHHW     BUITENGAATS/BG-OHVS2      42 m.
METAR EHHW 061125Z AUTO 34009KT 300V360 9999 OVC041/// 05/00 Q1033=

06/03/2021 12.30 uur LT